Roscoe, MO (64781)

6:17 AM CDT on July 25, 2014 (GMT -0500)
Between Arnica And Bugtussle (KMOHUMAN2) Elev 1010 ft | 37.75 °N, 93.67 °W | Change Station

Current weather conditions updated 2 minutes ago

Clear
Clear
67.6 °F
Feels Like 67.6 °F
N
0.9
Wind Variable Wind from East
Gusts 0.9 mph

Today is forecast to be Warmer than yesterday.

Today
High -- | Low -- °F
--% Chance of Precip.
Yesterday
High -- | Low -- °F
Precip. -- in
6:12 AM 8:30 PM
Waning Crescent, 2% visible
Pressure 29.96 in
Visibility 10.0 miles
Clouds Clear
Dew Point 57 °F
Humidity 69%
Rainfall 0.00 in
Snow Depth Not available.
UV 0 out of 12
Pollen 5.40 out of 12
Air Quality Not available.
Flu Activity Not available.
METAR KGLY 251115Z AUTO 17009KT 10SM CLR 21/16 A2996 RMK AO2

More Conditions Fewer Conditions

Pressure 29.96 in
Visibility 10.0 miles
Clouds Clear
Dew Point 57 °F
Humidity 69%
Rainfall 0.00 in
Snow Depth Not available.
UV 0 out of 12
Pollen 5.40 out of 12
Air Quality Not available.
Flu Activity Not available.
METAR KGLY 251115Z AUTO 17009KT 10SM CLR 21/16 A2996 RMK AO2

More Conditions Fewer Conditions

10-Day Weather Forecast

Almanac

Astronomy

Jul. 25, 2014 Rise Set
Actual Time 6:12 AM CDT 8:30 PM CDT
Civil Twilight 5:42 AM CDT 9:00 PM CDT
Nautical Twilight 5:06 AM CDT 9:36 PM CDT
Astronomical Twilight 4:25 AM CDT 10:16 PM CDT
Moon 5:11 AM CDT 7:28 PM CDT
Length of Visible Light 15h 17m
Length of Day
14h 18m
Tomorrow will be 1m 37s shorter.
Waning Crescent, 2% of the Moon is Illuminated
Today
Waning Crescent
Jul 26
New
Aug 3
First Quarter
Aug 10
Full
Aug 17
Last Quarter

Today's Extremes

State Highs State Lows

Community

WunderPhotos

Upload Photos

1,737,289 photos uploaded!

Nearby

Snow Depth

Station Depth Elevation
No new snow has been reported.

Earthquake Activity

City Distance Mag. Time & Date
No recent earthquake activity has been reported nearby.
Minimum magnitude displayed is 2.5.

Coastal Water Temperatures

Place Temperature
No Stations Reporting

Nearby Weather Stations

Station Location Temp. Heat Index Dew Point Humidity Wind Precip. Elev Updated Type
Between Arnica And Bugtussle, Humansville, MO 67.6 °F - 57 °F 69% East  at  0.9 mph 0.00 in / hr 1010 ft 6:15 AM CDT Normal
City Park, Stockton, MO 71.2 °F 71 °F 65 °F 81% South  at  3.8 mph 0.00 in / hr 958 ft 6:17 AM CDT Rapid Fire

Show More Stations Show Fewer Stations